Time;durP1;ratioP1;P1;durP2;ratioP2;P2;SDS_P1;SDS_P2;PMS_P1;PMS_P2;Temp;Humidity;BMP_temperature;BMP_pressure;BME280_temperature;BME280_humidity;BME280_pressure;Samples;Min_cycle;Max_cycle;Signal;HPM_P1;HPM_P2
2021/12/03 00:01:31;;;;;;;5.63;2.50;;;;;;;;;;4959722;28;20045;-85
2021/12/03 00:03:57;;;;;;;6.20;2.10;;;;;;;;;;4973768;28;20041;-85
2021/12/03 00:06:23;;;;;;;5.63;1.83;;;;;;;;;;4962966;28;20041;-85
2021/12/03 00:08:50;;;;;;;8.63;1.88;;;;;;;;;;4959814;28;20133;-87
2021/12/03 00:11:16;;;;;;;6.80;1.65;;;;;;;;;;4964052;28;20088;-87
2021/12/03 00:13:42;;;;;;;5.72;1.88;;;;;;;;;;4962098;28;20031;-86
2021/12/03 00:16:08;;;;;;;7.72;2.53;;;;;;;;;;4963510;28;20085;-86
2021/12/03 00:18:35;;;;;;;16.08;2.15;;;;;;;;;;4971998;28;20018;-85
2021/12/03 00:21:03;;;;;;;7.00;1.35;;;;;;;;;;4971042;28;20038;-86
2021/12/03 00:23:30;;;;;;;8.63;1.33;;;;;;;;;;4961866;28;20121;-85
2021/12/03 00:25:58;;;;;;;6.32;1.52;;;;;;;;;;4956379;28;20065;-85
2021/12/03 00:28:24;;;;;;;4.65;1.38;;;;;;;;;;4963251;28;20373;-85
2021/12/03 00:30:50;;;;;;;4.75;1.52;;;;;;;;;;4975950;28;20034;-87
2021/12/03 00:33:16;;;;;;;5.72;2.00;;;;;;;;;;4961563;28;20028;-86
2021/12/03 00:35:42;;;;;;;8.27;1.38;;;;;;;;;;4957746;28;20058;-86
2021/12/03 01:00:01;;;;;;;8.05;1.52;;;;;;;;;;4966535;28;20165;-86
2021/12/03 01:02:27;;;;;;;11.57;2.05;;;;;;;;;;4954211;28;20038;-86
2021/12/03 01:04:53;;;;;;;7.15;1.40;;;;;;;;;;4967543;28;20030;-85
2021/12/03 01:07:19;;;;;;;4.00;1.50;;;;;;;;;;4976866;28;20504;-85
2021/12/03 01:09:45;;;;;;;7.00;1.40;;;;;;;;;;4972646;28;20386;-85
2021/12/03 01:12:11;;;;;;;5.47;1.60;;;;;;;;;;4974865;28;20030;-86
2021/12/03 01:14:39;;;;;;;2.35;0.75;;;;;;;;;;4961588;28;20045;-87
2021/12/03 01:17:05;;;;;;;8.25;1.50;;;;;;;;;;4973589;28;20026;-85
2021/12/03 01:19:31;;;;;;;5.35;1.38;;;;;;;;;;4951924;28;20410;-85
2021/12/03 01:21:57;;;;;;;5.80;1.65;;;;;;;;;;4973859;28;20042;-87
2021/12/03 01:24:23;;;;;;;11.73;1.52;;;;;;;;;;4957075;28;20049;-86
2021/12/03 01:26:54;;;;;;;4.43;1.33;;;;;;;;;;4976076;28;20034;-85
2021/12/03 01:29:20;;;;;;;7.30;1.70;;;;;;;;;;4974965;28;20066;-86
2021/12/03 01:31:47;;;;;;;11.05;1.70;;;;;;;;;;4958655;28;21228;-86
2021/12/03 01:34:14;;;;;;;5.45;1.10;;;;;;;;;;4961354;28;20591;-86
2021/12/03 01:36:40;;;;;;;9.43;1.48;;;;;;;;;;4970885;28;20030;-85
2021/12/03 01:39:07;;;;;;;9.60;1.75;;;;;;;;;;4969975;28;20034;-85
2021/12/03 01:41:34;;;;;;;5.53;1.88;;;;;;;;;;4956259;28;20061;-86
2021/12/03 01:44:03;;;;;;;1.63;1.15;;;;;;;;;;4978588;28;20041;-86
2021/12/03 01:46:30;;;;;;;4.70;1.50;;;;;;;;;;4958395;28;20340;-86
2021/12/03 01:48:56;;;;;;;5.13;1.48;;;;;;;;;;4980692;28;20081;-85
2021/12/03 01:51:22;;;;;;;4.93;1.42;;;;;;;;;;4955393;28;20657;-86
2021/12/03 01:53:49;;;;;;;3.53;1.42;;;;;;;;;;4958275;28;20475;-85
2021/12/03 01:56:16;;;;;;;5.80;1.40;;;;;;;;;;4956814;28;20553;-87
2021/12/03 01:58:43;;;;;;;14.32;1.60;;;;;;;;;;4976962;28;20022;-86
2021/12/03 02:01:10;;;;;;;4.35;1.30;;;;;;;;;;4975327;28;20118;-86
2021/12/03 02:03:37;;;;;;;10.52;1.52;;;;;;;;;;4975954;28;20105;-85
2021/12/03 02:06:04;;;;;;;9.32;1.65;;;;;;;;;;4973525;28;20125;-86
2021/12/03 02:08:30;;;;;;;4.75;1.52;;;;;;;;;;4961366;28;20037;-85
2021/12/03 02:10:57;;;;;;;2.53;1.35;;;;;;;;;;4967403;28;20298;-86
2021/12/03 02:13:23;;;;;;;4.53;1.50;;;;;;;;;;4977992;28;20116;-86
2021/12/03 02:15:49;;;;;;;11.27;1.90;;;;;;;;;;4961736;28;20038;-86
2021/12/03 02:18:16;;;;;;;6.43;1.40;;;;;;;;;;4954582;28;20053;-86
2021/12/03 02:20:43;;;;;;;9.63;2.28;;;;;;;;;;4958388;28;20026;-86
2021/12/03 02:23:10;;;;;;;6.40;1.30;;;;;;;;;;4971005;28;20031;-86
2021/12/03 02:25:36;;;;;;;10.05;1.40;;;;;;;;;;4957361;28;20077;-86
2021/12/03 02:28:02;;;;;;;5.35;1.40;;;;;;;;;;4954120;28;20485;-86
2021/12/03 02:30:28;;;;;;;10.00;1.67;;;;;;;;;;4956858;28;20474;-86
2021/12/03 02:32:54;;;;;;;13.82;2.30;;;;;;;;;;4960347;28;20283;-87
2021/12/03 02:35:22;;;;;;;6.57;2.00;;;;;;;;;;4966887;28;20070;-86
2021/12/03 02:37:48;;;;;;;11.48;2.22;;;;;;;;;;4978196;28;20015;-86
2021/12/03 02:40:14;;;;;;;5.43;2.00;;;;;;;;;;4967718;28;20065;-86
2021/12/03 02:42:41;;;;;;;17.58;2.10;;;;;;;;;;4973498;28;20494;-86
2021/12/03 02:45:07;;;;;;;3.58;1.90;;;;;;;;;;4970546;28;20038;-86
2021/12/03 02:47:33;;;;;;;4.05;1.83;;;;;;;;;;4969637;28;20113;-86
2021/12/03 02:50:00;;;;;;;3.85;2.05;;;;;;;;;;4972608;28;20035;-86
2021/12/03 02:52:26;;;;;;;7.30;1.95;;;;;;;;;;4969201;28;20033;-86
2021/12/03 02:54:52;;;;;;;5.85;1.58;;;;;;;;;;4959435;28;20031;-86
2021/12/03 02:57:18;;;;;;;3.67;1.60;;;;;;;;;;4969928;28;20383;-85
2021/12/03 02:59:44;;;;;;;7.20;1.80;;;;;;;;;;4952545;28;20100;-86
2021/12/03 03:02:10;;;;;;;8.55;1.92;;;;;;;;;;4937603;28;20039;-85
2021/12/03 03:04:36;;;;;;;9.00;1.45;;;;;;;;;;4951787;28;20351;-86
2021/12/03 03:07:03;;;;;;;5.50;1.58;;;;;;;;;;4935949;28;20472;-86
2021/12/03 03:09:31;;;;;;;4.68;1.77;;;;;;;;;;4956702;28;20664;-86
2021/12/03 03:11:57;;;;;;;9.65;2.47;;;;;;;;;;4950885;28;20041;-86
2021/12/03 03:14:23;;;;;;;7.97;2.30;;;;;;;;;;4938536;28;20037;-85
2021/12/03 03:16:49;;;;;;;9.52;3.22;;;;;;;;;;4934214;28;20035;-87
2021/12/03 03:19:17;;;;;;;13.70;3.85;;;;;;;;;;4943803;28;20041;-86
2021/12/03 03:21:44;;;;;;;16.17;4.05;;;;;;;;;;4951285;28;20039;-86
2021/12/03 03:24:11;;;;;;;12.00;4.13;;;;;;;;;;4940269;28;20053;-86
2021/12/03 03:26:38;;;;;;;5.63;2.33;;;;;;;;;;4938337;28;20037;-86
2021/12/03 03:29:08;;;;;;;17.60;4.97;;;;;;;;;;4952935;28;20042;-86
2021/12/03 03:31:35;;;;;;;7.30;2.28;;;;;;;;;;4946518;28;20488;-86
2021/12/03 03:34:01;;;;;;;16.45;4.78;;;;;;;;;;4936820;28;20754;-87
2021/12/03 03:36:27;;;;;;;13.18;4.15;;;;;;;;;;4957331;28;20051;-85
2021/12/03 03:38:54;;;;;;;12.20;5.72;;;;;;;;;;4948993;28;20023;-86
2021/12/03 03:41:20;;;;;;;14.07;5.70;;;;;;;;;;4940882;28;20703;-86
2021/12/03 03:43:46;;;;;;;8.00;3.58;;;;;;;;;;4960183;28;20697;-86
2021/12/03 03:46:12;;;;;;;24.92;6.85;;;;;;;;;;4945212;28;20038;-86
2021/12/03 03:48:38;;;;;;;18.48;6.80;;;;;;;;;;4951019;28;20027;-86
2021/12/03 03:51:04;;;;;;;4.10;2.92;;;;;;;;;;4935579;28;20085;-86
2021/12/03 03:53:30;;;;;;;15.48;6.05;;;;;;;;;;4918229;28;20042;-85
2021/12/03 03:55:56;;;;;;;17.92;6.97;;;;;;;;;;4951014;28;20045;-86
2021/12/03 03:58:22;;;;;;;17.75;8.55;;;;;;;;;;4931918;28;20258;-86
2021/12/03 04:00:48;;;;;;;25.83;8.05;;;;;;;;;;4947076;28;20042;-86
2021/12/03 04:03:14;;;;;;;13.93;6.07;;;;;;;;;;4952247;28;20475;-85
2021/12/03 04:05:41;;;;;;;21.60;10.00;;;;;;;;;;4943932;28;20738;-86
2021/12/03 04:08:08;;;;;;;20.73;9.13;;;;;;;;;;4938178;28;20162;-87
2021/12/03 04:10:34;;;;;;;24.85;7.75;;;;;;;;;;4959794;28;20823;-86
2021/12/03 04:13:01;;;;;;;12.32;4.82;;;;;;;;;;4948468;28;20379;-86
2021/12/03 04:15:27;;;;;;;30.23;12.25;;;;;;;;;;4941854;28;20522;-86
2021/12/03 04:17:53;;;;;;;26.77;11.90;;;;;;;;;;4952535;28;20553;-86
2021/12/03 04:20:19;;;;;;;31.02;13.18;;;;;;;;;;4941972;28;20052;-87
2021/12/03 04:22:46;;;;;;;33.50;13.02;;;;;;;;;;4952842;28;20446;-86
2021/12/03 04:25:14;;;;;;;25.25;12.52;;;;;;;;;;4940369;28;20030;-86
2021/12/03 04:27:40;;;;;;;21.60;6.85;;;;;;;;;;4936718;28;20042;-86
2021/12/03 04:30:08;;;;;;;19.85;9.10;;;;;;;;;;4953470;28;20030;-86
2021/12/03 04:32:34;;;;;;;28.13;12.95;;;;;;;;;;4941230;28;20026;-86
2021/12/03 04:35:00;;;;;;;32.25;13.80;;;;;;;;;;4954470;28;20507;-86
2021/12/03 04:37:26;;;;;;;22.33;11.02;;;;;;;;;;4954230;28;20027;-86
2021/12/03 04:39:52;;;;;;;29.38;12.35;;;;;;;;;;4938869;28;20542;-86
2021/12/03 04:42:19;;;;;;;25.23;11.25;;;;;;;;;;4953781;28;20038;-87
2021/12/03 04:44:45;;;;;;;28.27;12.88;;;;;;;;;;4950077;28;20195;-86
2021/12/03 04:47:11;;;;;;;23.10;11.98;;;;;;;;;;4957446;28;20530;-86
2021/12/03 04:49:37;;;;;;;26.35;8.45;;;;;;;;;;4950009;28;20089;-86
2021/12/03 04:52:04;;;;;;;22.30;12.43;;;;;;;;;;4940947;28;20593;-85
2021/12/03 04:54:30;;;;;;;23.48;12.43;;;;;;;;;;4937563;28;20963;-85
2021/12/03 04:56:56;;;;;;;26.98;12.45;;;;;;;;;;4942675;28;20022;-86
2021/12/03 04:59:35;;;;;;;29.23;12.23;;;;;;;;;;4943211;28;20060;-86
2021/12/03 05:02:14;;;;;;;24.00;12.10;;;;;;;;;;4963809;28;20507;-86
2021/12/03 05:04:41;;;;;;;26.15;8.82;;;;;;;;;;4958516;28;20581;-86
2021/12/03 05:09:34;;;;;;;18.98;10.48;;;;;;;;;;4969801;28;20039;-86
2021/12/03 05:12:00;;;;;;;11.60;6.40;;;;;;;;;;4980945;28;20045;-85
2021/12/03 05:14:26;;;;;;;15.88;6.85;;;;;;;;;;4959475;28;20472;-86
2021/12/03 05:16:52;;;;;;;29.35;12.13;;;;;;;;;;4964083;28;20027;-87
2021/12/03 05:19:19;;;;;;;28.88;12.32;;;;;;;;;;4958078;28;20088;-86
2021/12/03 05:21:45;;;;;;;31.95;10.70;;;;;;;;;;4971364;28;20026;-86
2021/12/03 05:24:12;;;;;;;24.90;10.85;;;;;;;;;;4959548;28;20034;-87
2021/12/03 05:26:39;;;;;;;26.35;12.18;;;;;;;;;;4970801;28;20056;-86
2021/12/03 05:29:06;;;;;;;23.15;9.75;;;;;;;;;;4959409;28;20038;-86
2021/12/03 05:31:32;;;;;;;36.70;15.20;;;;;;;;;;4955042;28;20034;-86
2021/12/03 05:33:59;;;;;;;26.85;11.65;;;;;;;;;;4976781;28;20045;-86
2021/12/03 05:36:25;;;;;;;26.55;12.15;;;;;;;;;;4955352;28;20390;-86
2021/12/03 05:38:51;;;;;;;23.08;10.43;;;;;;;;;;4978408;28;20473;-86
2021/12/03 05:41:17;;;;;;;24.33;10.15;;;;;;;;;;4955749;28;20745;-86
2021/12/03 05:43:44;;;;;;;19.92;7.80;;;;;;;;;;4963917;28;20068;-86
2021/12/03 05:46:10;;;;;;;17.67;8.90;;;;;;;;;;4970749;28;20549;-87
2021/12/03 05:48:36;;;;;;;31.83;14.63;;;;;;;;;;4972708;28;20035;-86
2021/12/03 05:51:02;;;;;;;24.98;11.95;;;;;;;;;;4955757;28;20026;-86
2021/12/03 05:53:28;;;;;;;22.05;10.07;;;;;;;;;;4976480;28;20030;-86
2021/12/03 05:55:54;;;;;;;26.63;9.88;;;;;;;;;;4954049;28;20053;-86
2021/12/03 05:58:20;;;;;;;22.08;10.00;;;;;;;;;;4973446;28;20051;-87
2021/12/03 06:00:46;;;;;;;12.50;7.18;;;;;;;;;;4955065;28;20116;-86
2021/12/03 06:03:19;;;;;;;24.50;11.68;;;;;;;;;;4978792;28;20038;-86
2021/12/03 06:05:45;;;;;;;11.45;6.18;;;;;;;;;;4972014;28;20035;-86
2021/12/03 06:08:11;;;;;;;16.27;6.93;;;;;;;;;;4952557;28;20125;-86
2021/12/03 06:10:37;;;;;;;24.50;8.82;;;;;;;;;;4969725;28;20084;-86
2021/12/03 06:13:04;;;;;;;16.75;7.97;;;;;;;;;;4975690;28;20026;-86
2021/12/03 06:15:30;;;;;;;6.93;4.28;;;;;;;;;;4952622;28;20061;-87
2021/12/03 06:17:57;;;;;;;19.85;7.57;;;;;;;;;;4959940;28;20498;-87
2021/12/03 06:20:24;;;;;;;4.45;3.03;;;;;;;;;;4948352;28;20547;-86
2021/12/03 06:22:50;;;;;;;15.10;6.57;;;;;;;;;;4958238;28;20042;-86
2021/12/03 06:25:17;;;;;;;12.35;6.82;;;;;;;;;;4971033;28;20053;-86
2021/12/03 06:27:43;;;;;;;18.85;8.45;;;;;;;;;;4969161;28;20643;-85
2021/12/03 06:30:11;;;;;;;21.63;9.77;;;;;;;;;;4956385;28;20141;-86
2021/12/03 06:32:37;;;;;;;18.08;8.57;;;;;;;;;;4955608;28;20033;-87
2021/12/03 06:35:04;;;;;;;10.27;5.78;;;;;;;;;;4975339;28;20411;-87
2021/12/03 06:37:30;;;;;;;9.70;5.00;;;;;;;;;;4970674;28;20441;-87
2021/12/03 06:39:57;;;;;;;17.85;8.70;;;;;;;;;;4961003;28;20034;-87
2021/12/03 06:42:23;;;;;;;19.52;9.88;;;;;;;;;;4950764;28;20085;-86
2021/12/03 06:44:49;;;;;;;10.23;5.80;;;;;;;;;;4976248;28;20454;-86
2021/12/03 06:47:15;;;;;;;17.10;8.75;;;;;;;;;;4968778;28;20141;-89
2021/12/03 06:49:43;;;;;;;20.23;8.45;;;;;;;;;;4973437;28;20407;-93
2021/12/03 06:52:14;;;;;;;13.98;6.35;;;;;;;;;;4953588;28;20026;-86
2021/12/03 06:54:41;;;;;;;21.10;8.90;;;;;;;;;;4971840;28;20222;-89
2021/12/03 06:57:08;;;;;;;21.95;9.07;;;;;;;;;;4968476;28;20541;-87
2021/12/03 06:59:35;;;;;;;11.23;6.53;;;;;;;;;;4959981;28;20041;-87
2021/12/03 07:02:01;;;;;;;17.80;8.13;;;;;;;;;;4964990;28;20038;-87
2021/12/03 07:04:27;;;;;;;14.95;5.03;;;;;;;;;;4974033;28;20054;-87
2021/12/03 07:06:53;;;;;;;9.55;4.63;;;;;;;;;;4968577;28;20528;-86
2021/12/03 07:09:19;;;;;;;19.55;8.90;;;;;;;;;;4958190;28;20626;-89
2021/12/03 07:11:46;;;;;;;13.35;6.97;;;;;;;;;;4957039;28;20426;-87
2021/12/03 07:14:12;;;;;;;15.52;7.22;;;;;;;;;;4976543;28;20038;-86
2021/12/03 07:16:38;;;;;;;11.98;6.88;;;;;;;;;;4970899;28;20482;-87
2021/12/03 07:19:04;;;;;;;16.90;8.07;;;;;;;;;;4960670;28;20065;-87
2021/12/03 07:21:30;;;;;;;14.00;6.28;;;;;;;;;;4947505;28;20089;-86
2021/12/03 07:23:56;;;;;;;16.25;8.57;;;;;;;;;;4956280;28;20038;-87
2021/12/03 07:26:24;;;;;;;16.75;7.55;;;;;;;;;;4955158;28;20030;-86
2021/12/03 07:28:50;;;;;;;6.03;3.83;;;;;;;;;;4954727;28;20437;-90
2021/12/03 07:31:16;;;;;;;26.65;7.43;;;;;;;;;;4948867;28;20030;-87
2021/12/03 07:33:42;;;;;;;25.17;7.10;;;;;;;;;;4970749;28;20406;-87
2021/12/03 07:36:08;;;;;;;15.65;7.05;;;;;;;;;;4972763;28;20471;-86
2021/12/03 07:38:35;;;;;;;12.82;4.07;;;;;;;;;;4970028;28;20033;-87
2021/12/03 07:41:01;;;;;;;13.88;6.75;;;;;;;;;;4959897;28;20049;-87
2021/12/03 07:43:27;;;;;;;8.07;4.22;;;;;;;;;;4952726;28;21024;-86
2021/12/03 07:45:53;;;;;;;9.65;3.35;;;;;;;;;;4976880;28;20675;-86
2021/12/03 07:48:22;;;;;;;9.40;3.75;;;;;;;;;;4964232;28;20046;-86
2021/12/03 07:50:48;;;;;;;9.98;5.00;;;;;;;;;;4974447;28;20030;-88
2021/12/03 07:53:17;;;;;;;13.48;4.07;;;;;;;;;;4956174;28;20031;-88
2021/12/03 07:55:44;;;;;;;15.35;2.95;;;;;;;;;;4971883;28;20314;-88
2021/12/03 07:58:10;;;;;;;26.88;5.45;;;;;;;;;;4955575;28;20042;-89
2021/12/03 08:00:36;;;;;;;19.42;5.53;;;;;;;;;;4978199;28;20034;-89
2021/12/03 08:03:08;;;;;;;15.90;4.57;;;;;;;;;;4959063;28;20066;-89
2021/12/03 08:05:35;;;;;;;17.98;4.47;;;;;;;;;;4962389;28;20023;-89
2021/12/03 08:08:01;;;;;;;9.90;4.80;;;;;;;;;;4968987;28;20086;-89
2021/12/03 08:10:27;;;;;;;13.82;5.75;;;;;;;;;;4959455;28;20038;-89
2021/12/03 08:12:53;;;;;;;5.00;2.97;;;;;;;;;;4969941;28;20058;-88
2021/12/03 08:15:19;;;;;;;8.40;3.88;;;;;;;;;;4970800;28;20043;-88
2021/12/03 08:17:49;;;;;;;5.97;3.10;;;;;;;;;;4964878;28;20283;-88
2021/12/03 08:20:15;;;;;;;7.78;3.78;;;;;;;;;;4958440;28;20750;-87
2021/12/03 08:22:41;;;;;;;12.25;4.03;;;;;;;;;;4968325;28;20037;-88
2021/12/03 08:25:08;;;;;;;11.48;3.30;;;;;;;;;;4957839;28;20138;-89
2021/12/03 08:27:34;;;;;;;4.97;2.40;;;;;;;;;;4958634;28;20030;-89
2021/12/03 08:30:00;;;;;;;7.53;3.53;;;;;;;;;;4958731;28;20117;-89
2021/12/03 08:32:26;;;;;;;18.95;4.63;;;;;;;;;;4974863;28;20038;-88
2021/12/03 08:34:52;;;;;;;16.23;3.20;;;;;;;;;;4972560;28;20022;-87
2021/12/03 08:37:18;;;;;;;8.80;4.47;;;;;;;;;;4959728;28;20054;-87
2021/12/03 08:39:44;;;;;;;3.83;2.00;;;;;;;;;;4973045;28;20061;-87
2021/12/03 08:42:12;;;;;;;4.05;2.28;;;;;;;;;;4977180;28;20061;-86
2021/12/03 08:44:38;;;;;;;5.00;2.75;;;;;;;;;;4972697;28;20034;-87
2021/12/03 08:47:06;;;;;;;8.07;3.40;;;;;;;;;;4977704;28;20385;-88
2021/12/03 08:50:11;;;;;;;8.20;3.80;;;;;;;;;;4974174;28;20093;-88
2021/12/03 08:55:15;;;;;;;10.68;3.83;;;;;;;;;;4946227;28;20034;-88
2021/12/03 08:57:41;;;;;;;12.45;3.65;;;;;;;;;;4951496;28;20053;-87
2021/12/03 09:00:12;;;;;;;8.43;3.03;;;;;;;;;;4962754;28;20034;-87
2021/12/03 09:02:39;;;;;;;11.13;3.38;;;;;;;;;;4970119;28;20268;-87
2021/12/03 09:05:05;;;;;;;11.70;5.00;;;;;;;;;;4945253;28;20031;-86
2021/12/03 09:07:31;;;;;;;15.32;3.88;;;;;;;;;;4938298;28;20048;-87
2021/12/03 09:09:58;;;;;;;5.63;3.33;;;;;;;;;;4955831;28;20042;-87
2021/12/03 09:12:24;;;;;;;8.90;3.47;;;;;;;;;;4952733;28;20031;-87
2021/12/03 09:14:57;;;;;;;7.03;3.17;;;;;;;;;;4946786;28;20513;-87
2021/12/03 09:22:34;;;;;;;14.70;4.15;;;;;;;;;;4952798;28;20125;-86
2021/12/03 09:25:01;;;;;;;6.15;3.00;;;;;;;;;;4940914;28;20027;-87
2021/12/03 09:27:27;;;;;;;29.17;7.28;;;;;;;;;;4934628;28;20034;-88
2021/12/03 09:29:55;;;;;;;15.20;5.90;;;;;;;;;;4956324;28;20097;-87
2021/12/03 09:32:24;;;;;;;8.93;4.40;;;;;;;;;;4931710;28;20027;-87
2021/12/03 09:34:50;;;;;;;5.90;3.63;;;;;;;;;;4956306;28;20125;-87
2021/12/03 09:37:16;;;;;;;9.00;3.78;;;;;;;;;;4954278;28;20542;-89
2021/12/03 09:39:45;;;;;;;10.98;6.40;;;;;;;;;;4953256;28;20439;-87
2021/12/03 09:42:13;;;;;;;17.02;7.13;;;;;;;;;;4938115;28;20038;-87
2021/12/03 09:44:40;;;;;;;18.75;7.15;;;;;;;;;;4954792;28;20070;-87
2021/12/03 09:47:06;;;;;;;8.57;3.67;;;;;;;;;;4951619;28;20042;-87
2021/12/03 09:49:34;;;;;;;29.17;9.20;;;;;;;;;;4941698;28;20043;-87
2021/12/03 09:54:39;;;;;;;15.80;6.10;;;;;;;;;;4955116;28;20070;-87
2021/12/03 09:57:12;;;;;;;19.58;7.93;;;;;;;;;;4954337;28;20027;-87
2021/12/03 10:09:01;;;;;;;18.52;7.50;;;;;;;;;;4973184;28;20085;-87
2021/12/03 10:11:10;;;;;;;16.95;4.97;;;;;;;;;;4958919;28;22446;-88
2021/12/03 10:13:38;;;;;;;12.20;5.10;;;;;;;;;;4969171;28;20136;-87
2021/12/03 10:16:20;;;;;;;20.83;6.88;;;;;;;;;;4962954;28;20037;-87
2021/12/03 10:18:50;;;;;;;17.63;5.60;;;;;;;;;;4971080;28;20034;-88
2021/12/03 10:21:44;;;;;;;23.40;9.00;;;;;;;;;;4961886;28;20034;-88
2021/12/03 10:29:42;;;;;;;17.95;6.50;;;;;;;;;;4972525;28;20073;-88
2021/12/03 10:41:34;;;;;;;16.13;6.72;;;;;;;;;;4971748;28;20706;-88
2021/12/03 10:51:33;;;;;;;18.92;6.00;;;;;;;;;;4971307;28;20050;-87
2021/12/03 10:54:10;;;;;;;22.40;7.25;;;;;;;;;;4975989;28;20142;-88
2021/12/03 11:07:38;;;;;;;8.63;4.00;;;;;;;;;;4967146;28;20027;-87
2021/12/03 11:13:36;;;;;;;15.18;5.72;;;;;;;;;;4971020;28;20103;-88
2021/12/03 11:19:46;;;;;;;;;;;;;;;;;;4968952;28;20206;-87
2021/12/03 12:07:22;;;;;;;15.60;4.63;;;;;;;;;;4977901;28;20560;-87
2021/12/03 12:23:48;;;;;;;10.32;3.92;;;;;;;;;;4984495;28;20549;-87
2021/12/03 12:26:49;;;;;;;16.10;4.93;;;;;;;;;;4979051;28;20225;-88
2021/12/03 13:12:55;;;;;;;12.93;5.57;;;;;;;;;;4977603;28;20034;-87
2021/12/03 14:44:30;;;;;;;10.50;3.70;;;;;;;;;;4978155;28;20085;-87
2021/12/03 14:50:23;;;;;;;13.68;3.70;;;;;;;;;;4980364;28;20073;-87
2021/12/03 14:55:37;;;;;;;9.23;3.80;;;;;;;;;;4961655;28;20686;-87
2021/12/03 14:58:18;;;;;;;5.90;3.28;;;;;;;;;;4962265;28;20043;-88
2021/12/03 15:00:53;;;;;;;7.97;3.60;;;;;;;;;;4980189;28;20438;-88
2021/12/03 15:03:45;;;;;;;14.75;3.60;;;;;;;;;;4961838;28;20121;-86
2021/12/03 15:06:29;;;;;;;4.68;2.67;;;;;;;;;;4941810;28;20034;-89
2021/12/03 15:30:23;;;;;;;5.35;2.90;;;;;;;;;;4957654;28;20038;-88
2021/12/03 16:03:31;;;;;;;10.55;4.90;;;;;;;;;;4968741;28;20023;-88
2021/12/03 16:45:08;;;;;;;13.13;7.32;;;;;;;;;;4982248;28;20098;-87
2021/12/03 16:53:03;;;;;;;15.13;7.60;;;;;;;;;;4981742;28;20498;-87
2021/12/03 16:55:30;;;;;;;16.42;6.38;;;;;;;;;;4975430;28;20118;-86
2021/12/03 16:57:56;;;;;;;10.88;7.00;;;;;;;;;;4977276;28;20401;-86
2021/12/03 17:00:29;;;;;;;12.82;6.53;;;;;;;;;;4967734;28;20038;-86
2021/12/03 17:03:03;;;;;;;13.45;7.25;;;;;;;;;;4978564;28;20529;-86
2021/12/03 17:13:36;;;;;;;15.50;8.63;;;;;;;;;;4979403;28;20069;-87
2021/12/03 17:32:23;;;;;;;18.55;10.27;;;;;;;;;;4982717;28;20038;-86
2021/12/03 17:56:10;;;;;;;17.08;8.13;;;;;;;;;;4978175;28;20038;-86
2021/12/03 18:01:49;;;;;;;12.30;7.53;;;;;;;;;;4951380;28;20042;-85
2021/12/03 18:04:42;;;;;;;10.25;6.18;;;;;;;;;;4966396;28;20133;-86
2021/12/03 18:07:16;;;;;;;12.75;7.85;;;;;;;;;;4980448;28;20034;-86
2021/12/03 18:15:19;;;;;;;18.70;11.20;;;;;;;;;;4980037;28;20458;-86
2021/12/03 18:48:13;;;;;;;15.98;8.55;;;;;;;;;;4979061;28;20134;-86
2021/12/03 18:55:50;;;;;;;23.60;10.73;;;;;;;;;;4982005;28;20031;-85
2021/12/03 18:58:18;;;;;;;11.77;6.00;;;;;;;;;;4965799;28;20078;-86
2021/12/03 19:00:45;;;;;;;29.23;13.48;;;;;;;;;;4979817;28;20381;-86
2021/12/03 19:03:28;;;;;;;13.80;7.47;;;;;;;;;;4962592;28;20070;-86
2021/12/03 19:08:54;;;;;;;18.33;9.40;;;;;;;;;;4978006;28;20530;-86
2021/12/03 19:13:47;;;;;;;11.10;5.72;;;;;;;;;;4979281;28;20030;-85
2021/12/03 19:16:16;;;;;;;13.65;7.45;;;;;;;;;;4968225;28;20084;-85
2021/12/03 19:18:59;;;;;;;15.80;8.43;;;;;;;;;;4973549;28;20432;-86
2021/12/03 19:21:46;;;;;;;15.90;7.75;;;;;;;;;;4982641;28;20390;-86
2021/12/03 19:24:13;;;;;;;19.45;10.88;;;;;;;;;;4966030;28;20490;-84
2021/12/03 19:26:46;;;;;;;25.42;12.05;;;;;;;;;;4986593;28;20026;-85
2021/12/03 19:29:23;;;;;;;24.33;11.32;;;;;;;;;;4968505;28;20537;-85
2021/12/03 19:32:09;;;;;;;16.42;7.93;;;;;;;;;;4987698;28;20122;-85
2021/12/03 19:34:36;;;;;;;19.35;8.90;;;;;;;;;;4968976;28;20026;-85
2021/12/03 19:37:06;;;;;;;36.70;16.00;;;;;;;;;;4965830;28;20034;-85
2021/12/03 19:39:49;;;;;;;26.35;12.38;;;;;;;;;;4974038;28;20019;-86
2021/12/03 19:42:19;;;;;;;21.15;10.38;;;;;;;;;;4963545;28;20971;-87
2021/12/03 19:44:51;;;;;;;25.38;12.27;;;;;;;;;;4965089;28;20336;-86
2021/12/03 19:47:19;;;;;;;25.60;11.02;;;;;;;;;;4963769;28;20475;-86
2021/12/03 19:50:04;;;;;;;16.95;7.47;;;;;;;;;;4986743;28;20038;-86
2021/12/03 19:52:39;;;;;;;29.10;12.55;;;;;;;;;;4983656;28;20034;-87
2021/12/03 19:55:05;;;;;;;22.35;10.15;;;;;;;;;;4966046;28;20486;-85
2021/12/03 19:57:31;;;;;;;32.53;15.27;;;;;;;;;;4973218;28;20082;-85
2021/12/03 19:59:57;;;;;;;31.80;15.63;;;;;;;;;;4964644;28;20521;-85
2021/12/03 20:02:29;;;;;;;41.28;18.80;;;;;;;;;;4983131;28;20030;-85
2021/12/03 20:04:59;;;;;;;20.48;8.25;;;;;;;;;;4988354;28;20061;-85
2021/12/03 20:07:39;;;;;;;21.55;10.45;;;;;;;;;;4979084;28;20105;-86
2021/12/03 20:10:23;;;;;;;31.00;12.20;;;;;;;;;;4980017;28;20062;-85
2021/12/03 20:12:51;;;;;;;28.30;14.88;;;;;;;;;;4971890;28;20113;-86
2021/12/03 20:18:08;;;;;;;48.90;20.48;;;;;;;;;;4982771;28;20035;-87
2021/12/03 20:20:35;;;;;;;39.83;17.40;;;;;;;;;;4966525;28;20387;-86
2021/12/03 20:23:28;;;;;;;40.58;18.48;;;;;;;;;;4967606;28;20041;-86
2021/12/03 20:28:53;;;;;;;30.25;13.82;;;;;;;;;;4985091;28;20065;-86
2021/12/03 20:31:22;;;;;;;21.30;9.05;;;;;;;;;;4966215;28;20509;-86
2021/12/03 20:36:41;;;;;;;49.20;22.02;;;;;;;;;;4978626;28;20050;-86
2021/12/03 20:39:16;;;;;;;29.20;10.45;;;;;;;;;;4978657;28;20033;-85
2021/12/03 20:41:57;;;;;;;36.75;17.02;;;;;;;;;;4964433;28;20070;-86
2021/12/03 20:44:46;;;;;;;27.23;12.27;;;;;;;;;;4963127;28;20476;-86
2021/12/03 21:11:01;;;;;;;52.78;22.95;;;;;;;;;;4983144;28;20510;-86
2021/12/03 21:13:37;;;;;;;27.05;11.90;;;;;;;;;;4973701;28;20037;-86
2021/12/03 21:16:14;;;;;;;48.42;20.52;;;;;;;;;;4962494;28;20022;-86
2021/12/03 21:18:47;;;;;;;30.83;15.02;;;;;;;;;;4964796;28;20027;-86
2021/12/03 21:23:46;;;;;;;36.53;15.93;;;;;;;;;;4978707;28;20399;-87
2021/12/03 21:26:17;;;;;;;40.03;18.10;;;;;;;;;;4963904;28;20482;-87
2021/12/03 21:28:53;;;;;;;32.03;13.45;;;;;;;;;;4978842;28;20689;-86
2021/12/03 21:31:25;;;;;;;;;;;;;;;;;;4967348;28;20540;-87
2021/12/03 21:39:24;;;;;;;30.35;14.35;;;;;;;;;;4978747;28;20120;-86
2021/12/03 21:41:51;;;;;;;36.95;15.68;;;;;;;;;;4961534;28;20030;-86
2021/12/03 21:44:19;;;;;;;50.50;20.27;;;;;;;;;;4965206;28;20357;-87
2021/12/03 21:46:45;;;;;;;54.08;22.13;;;;;;;;;;4963583;28;20026;-86
2021/12/03 21:49:12;;;;;;;45.72;19.20;;;;;;;;;;4966193;28;20046;-86
2021/12/03 21:51:39;;;;;;;37.60;15.65;;;;;;;;;;4978251;28;20031;-86
2021/12/03 21:54:05;;;;;;;29.73;13.05;;;;;;;;;;4978848;28;20034;-86
2021/12/03 21:56:32;;;;;;;43.70;19.27;;;;;;;;;;4976477;28;20049;-87
2021/12/03 21:58:58;;;;;;;43.78;19.63;;;;;;;;;;4978681;28;20045;-86
2021/12/03 22:01:24;;;;;;;34.47;16.48;;;;;;;;;;4978431;28;20129;-87
2021/12/03 22:03:51;;;;;;;47.38;17.90;;;;;;;;;;4957963;28;20449;-87
2021/12/03 22:06:28;;;;;;;54.28;21.35;;;;;;;;;;4973388;28;20480;-86
2021/12/03 22:08:55;;;;;;;32.08;13.25;;;;;;;;;;4972249;28;20034;-85
2021/12/03 22:11:21;;;;;;;27.15;10.23;;;;;;;;;;4974506;28;20030;-85
2021/12/03 22:13:47;;;;;;;44.60;20.15;;;;;;;;;;4974403;28;20038;-86
2021/12/03 22:16:13;;;;;;;51.45;20.60;;;;;;;;;;4979094;28;20652;-86
2021/12/03 22:18:39;;;;;;;45.72;19.95;;;;;;;;;;4976554;28;20643;-86
2021/12/03 22:21:06;;;;;;;35.90;16.25;;;;;;;;;;4977954;28;20042;-85
2021/12/03 22:23:34;;;;;;;57.40;23.40;;;;;;;;;;4963356;28;20042;-86
2021/12/03 22:26:00;;;;;;;60.30;22.60;;;;;;;;;;4978244;28;20037;-87
2021/12/03 22:28:26;;;;;;;40.63;15.73;;;;;;;;;;4973516;28;20042;-86
2021/12/03 22:30:53;;;;;;;44.35;14.55;;;;;;;;;;4963952;28;20105;-85
2021/12/03 22:33:21;;;;;;;60.78;21.70;;;;;;;;;;4959912;28;20062;-86
2021/12/03 22:35:47;;;;;;;56.28;21.90;;;;;;;;;;4964153;28;20089;-86
2021/12/03 22:38:13;;;;;;;27.90;11.45;;;;;;;;;;4968744;28;20038;-85
2021/12/03 22:40:41;;;;;;;47.50;19.77;;;;;;;;;;4974839;28;20042;-86
2021/12/03 22:43:10;;;;;;;28.02;13.52;;;;;;;;;;4970567;28;20030;-86
2021/12/03 22:45:42;;;;;;;47.88;19.45;;;;;;;;;;4962840;28;20041;-85
2021/12/03 22:51:08;;;;;;;61.40;22.50;;;;;;;;;;4940975;28;20129;-88
2021/12/03 22:53:34;;;;;;;;;;;;;;;;;;4975949;28;20128;-86
2021/12/03 22:56:00;;;;;;;53.08;18.90;;;;;;;;;;4964911;28;20441;-86
2021/12/03 22:58:26;;;;;;;49.03;17.73;;;;;;;;;;4978828;28;20494;-86
2021/12/03 23:00:53;;;;;;;53.85;21.67;;;;;;;;;;4964648;28;20363;-86
2021/12/03 23:03:20;;;;;;;53.17;21.55;;;;;;;;;;4977044;28;20035;-86
2021/12/03 23:05:59;;;;;;;40.85;15.73;;;;;;;;;;4977939;28;20156;-86
2021/12/03 23:08:25;;;;;;;61.70;22.50;;;;;;;;;;4978017;28;20045;-86
2021/12/03 23:10:52;;;;;;;42.55;17.73;;;;;;;;;;4964779;28;20041;-86
2021/12/03 23:13:19;;;;;;;38.22;16.58;;;;;;;;;;4965298;28;20101;-86
2021/12/03 23:15:45;;;;;;;35.83;16.42;;;;;;;;;;4962867;28;20505;-86